Bom Jardim de Goias, Brazil
Current Conditions -  °F | °C
As of 8:00 PM on Saturday 25 Oct 2014 (Local Time) from SBBW Reporting Station
Scattered Clouds Scattered Clouds  
Wind Chill: 82°   Ceiling: Unl
Heat Index: 86°   Visibility: 6mi
Dew Point: 70°   Wind: 0mph
Humidity: 66%   Direction: NA
Pressure: 29.85"   Gusts: NA
Location:  16.21°S, 52.17°W
Report Text: SBBW 252200Z 00000KT 9999 SCT020 28/21 Q1011
Loading
Personal Weather Stations






























Interactive Weather Map
Tropical Storm Tracking
New forecast layout! Learn more

10-Day Weather Forecast

Advertisements
Track Severe Weather on mobile